createdAt,value
2017-11-05T00:00:49.734Z,96.01
2017-11-05T00:03:17.378Z,96.04
2017-11-05T00:05:45.074Z,96.05
2017-11-05T00:08:12.713Z,96.10
2017-11-05T00:10:40.396Z,96.18
2017-11-05T00:13:08.045Z,96.27
2017-11-05T00:15:35.734Z,96.36
2017-11-05T00:18:03.388Z,96.49
2017-11-05T00:20:31.095Z,96.59
2017-11-05T00:22:58.758Z,96.65
2017-11-05T00:25:26.394Z,96.69
2017-11-05T00:27:54.062Z,96.71
2017-11-05T00:30:21.714Z,96.71
2017-11-05T00:32:49.401Z,96.70
2017-11-05T00:35:17.111Z,96.81
2017-11-05T00:37:44.816Z,96.85
2017-11-05T00:40:12.463Z,96.94
2017-11-05T00:42:40.092Z,96.93
2017-11-05T00:45:07.730Z,97.02
2017-11-05T00:47:35.426Z,97.06
2017-11-05T00:50:03.986Z,97.11
2017-11-05T00:52:31.675Z,97.16
2017-11-05T00:54:59.335Z,97.19
2017-11-05T00:57:27.024Z,97.22
2017-11-05T00:59:54.680Z,97.21
2017-11-05T01:02:22.359Z,97.13
2017-11-05T01:04:50.012Z,97.05
2017-11-05T01:07:17.715Z,97.06
2017-11-05T01:09:45.379Z,97.04
2017-11-05T01:12:13.057Z,97.08
2017-11-05T01:14:40.703Z,97.05
2017-11-05T01:17:08.378Z,97.04
2017-11-05T01:19:36.070Z,97.10
2017-11-05T01:22:03.731Z,97.20
2017-11-05T01:24:31.419Z,97.31
2017-11-05T01:26:59.067Z,97.44
2017-11-05T01:29:26.708Z,97.54
2017-11-05T01:31:54.376Z,97.59
2017-11-05T01:34:22.067Z,97.63
2017-11-05T01:36:49.750Z,97.67
2017-11-05T01:39:17.451Z,97.69
2017-11-05T01:41:45.098Z,97.79
2017-11-05T01:44:12.779Z,97.82
2017-11-05T01:46:40.437Z,97.95
2017-11-05T01:49:08.113Z,98.07
2017-11-05T01:51:35.778Z,98.18
2017-11-05T01:54:03.462Z,98.27
2017-11-05T01:56:31.119Z,98.34
2017-11-05T01:58:58.761Z,98.46
2017-11-05T02:01:26.364Z,98.45
2017-11-05T02:03:54.040Z,98.45
2017-11-05T02:06:21.678Z,98.51
2017-11-05T02:08:49.370Z,98.59
2017-11-05T02:11:17.009Z,98.64
2017-11-05T02:13:44.712Z,98.64
2017-11-05T02:16:12.369Z,98.56
2017-11-05T02:18:40.028Z,98.51
2017-11-05T02:21:07.713Z,98.56
2017-11-05T02:23:35.355Z,98.66
2017-11-05T02:26:03.034Z,98.84
2017-11-05T02:28:30.707Z,99.02
2017-11-05T02:30:58.417Z,99.14
2017-11-05T02:33:26.059Z,99.25
2017-11-05T02:35:53.781Z,99.31
2017-11-05T02:38:21.429Z,99.39
2017-11-05T02:40:49.120Z,99.44
2017-11-05T02:43:16.779Z,99.48
2017-11-05T02:45:44.473Z,99.54
2017-11-05T02:48:12.117Z,99.58
2017-11-05T02:50:39.808Z,99.63
2017-11-05T02:53:07.459Z,99.72
2017-11-05T02:55:35.107Z,99.82
2017-11-05T02:58:02.794Z,99.93
2017-11-05T03:00:30.441Z,100.00
2017-11-05T03:02:58.127Z,100.00
2017-11-05T03:05:25.799Z,100.00
2017-11-05T03:07:53.487Z,100.00
2017-11-05T03:10:21.129Z,100.00
2017-11-05T03:12:48.745Z,100.00
2017-11-05T03:15:16.409Z,100.00
2017-11-05T03:17:44.099Z,100.00
2017-11-05T03:20:11.745Z,100.00
2017-11-05T03:22:39.442Z,100.00
2017-11-05T03:25:07.118Z,100.00
2017-11-05T03:27:34.759Z,100.00
2017-11-05T03:30:02.413Z,100.00
2017-11-05T03:32:30.122Z,100.00
2017-11-05T03:34:57.823Z,100.00
2017-11-05T03:37:25.506Z,100.00
2017-11-05T03:39:53.159Z,100.00
2017-11-05T03:42:20.814Z,100.00
2017-11-05T03:44:48.462Z,100.00
2017-11-05T03:47:16.132Z,100.00
2017-11-05T03:49:43.817Z,100.00
2017-11-05T03:52:11.498Z,100.00
2017-11-05T03:54:39.221Z,100.00
2017-11-05T03:57:06.907Z,100.00
2017-11-05T03:59:34.622Z,100.00
2017-11-05T04:02:02.286Z,100.00
2017-11-05T04:04:29.999Z,100.00
2017-11-05T04:06:57.686Z,100.00
2017-11-05T04:09:25.379Z,100.00
2017-11-05T04:11:53.029Z,100.00
2017-11-05T04:14:20.725Z,100.00
2017-11-05T04:16:48.381Z,100.00
2017-11-05T04:19:16.065Z,100.00
2017-11-05T04:21:43.719Z,100.00
2017-11-05T04:24:11.412Z,100.00
2017-11-05T04:26:39.056Z,100.00
2017-11-05T04:29:06.739Z,100.00
2017-11-05T04:31:34.385Z,100.00
2017-11-05T04:34:02.066Z,100.00
2017-11-05T04:36:29.800Z,100.00
2017-11-05T04:38:57.501Z,100.00
2017-11-05T04:41:25.188Z,100.00
2017-11-05T04:43:52.871Z,100.00
2017-11-05T04:46:20.575Z,100.00
2017-11-05T04:48:48.222Z,100.00
2017-11-05T04:51:15.906Z,100.00
2017-11-05T04:53:43.551Z,100.00
2017-11-05T04:56:11.277Z,100.00
2017-11-05T04:58:38.955Z,100.00
2017-11-05T05:01:06.639Z,100.00
2017-11-05T05:03:34.295Z,100.00
2017-11-05T05:06:01.985Z,100.00
2017-11-05T05:08:29.637Z,100.00
2017-11-05T05:10:57.333Z,100.00
2017-11-05T05:13:24.983Z,100.00
2017-11-05T05:15:52.691Z,100.00
2017-11-05T05:18:20.350Z,100.00
2017-11-05T05:20:48.035Z,100.00
2017-11-05T05:23:15.675Z,100.00
2017-11-05T05:25:43.375Z,100.00
2017-11-05T05:28:10.957Z,100.00
2017-11-05T05:30:38.647Z,100.00
2017-11-05T05:33:06.306Z,100.00
2017-11-05T05:35:34.021Z,100.00
2017-11-05T05:38:01.667Z,100.00
2017-11-05T05:40:29.379Z,100.00
2017-11-05T05:42:57.046Z,100.00
2017-11-05T05:45:24.757Z,100.00
2017-11-05T05:47:52.472Z,100.00
2017-11-05T05:50:20.152Z,100.00
2017-11-05T05:52:47.866Z,100.00
2017-11-05T05:55:15.530Z,100.00
2017-11-05T05:57:43.221Z,100.00
2017-11-05T06:00:10.884Z,100.00
2017-11-05T06:02:38.597Z,100.00
2017-11-05T06:05:06.257Z,100.00
2017-11-05T06:07:33.942Z,100.00
2017-11-05T06:10:01.598Z,100.00
2017-11-05T06:12:29.224Z,100.00
2017-11-05T06:14:56.847Z,100.00
2017-11-05T06:17:24.554Z,100.00
2017-11-05T06:19:52.213Z,100.00
2017-11-05T06:22:19.919Z,100.00
2017-11-05T06:24:47.590Z,100.00
2017-11-05T06:27:15.322Z,100.00
2017-11-05T06:29:42.974Z,100.00
2017-11-05T06:32:10.649Z,100.00
2017-11-05T06:34:38.342Z,100.00
2017-11-05T06:37:06.032Z,100.00
2017-11-05T06:39:33.750Z,100.00
2017-11-05T06:42:01.358Z,100.00
2017-11-05T06:44:29.057Z,100.00
2017-11-05T06:46:56.646Z,100.00
2017-11-05T06:49:24.334Z,100.00
2017-11-05T06:51:51.996Z,100.00
2017-11-05T06:54:19.716Z,100.00
2017-11-05T06:56:47.376Z,100.00
2017-11-05T06:59:15.094Z,100.00
2017-11-05T07:01:42.787Z,100.00
2017-11-05T07:04:10.466Z,100.00
2017-11-05T07:06:38.135Z,100.00
2017-11-05T07:09:05.830Z,100.00
2017-11-05T07:11:33.440Z,100.00
2017-11-05T07:14:01.134Z,100.00
2017-11-05T07:16:28.820Z,100.00
2017-11-05T07:18:56.522Z,100.00
2017-11-05T07:21:24.127Z,100.00
2017-11-05T07:23:51.842Z,100.00
2017-11-05T07:26:19.436Z,100.00
2017-11-05T07:28:47.106Z,100.00
2017-11-05T07:31:14.839Z,100.00
2017-11-05T07:33:42.518Z,100.00
2017-11-05T07:36:10.252Z,100.00
2017-11-05T07:38:37.938Z,100.00
2017-11-05T07:41:05.647Z,100.00
2017-11-05T07:43:33.322Z,100.00
2017-11-05T07:46:01.081Z,100.00
2017-11-05T07:48:28.737Z,100.00
2017-11-05T07:50:56.426Z,100.00
2017-11-05T07:53:24.026Z,100.00
2017-11-05T07:55:51.724Z,100.00
2017-11-05T07:58:19.386Z,100.00
2017-11-05T08:00:47.101Z,100.00
2017-11-05T08:03:14.752Z,100.00
2017-11-05T08:05:42.452Z,100.00
2017-11-05T08:08:10.119Z,100.00
2017-11-05T08:10:37.786Z,100.00
2017-11-05T08:13:05.495Z,100.00
2017-11-05T08:15:33.165Z,100.00
2017-11-05T08:18:00.858Z,100.00
2017-11-05T08:20:28.518Z,100.00
2017-11-05T08:22:56.226Z,100.00
2017-11-05T08:25:23.905Z,100.00
2017-11-05T08:27:51.597Z,100.00
2017-11-05T08:30:19.265Z,100.00
2017-11-05T08:32:46.981Z,100.00
2017-11-05T08:35:14.711Z,100.00
2017-11-05T08:37:42.404Z,100.00
2017-11-05T08:40:10.070Z,100.00
2017-11-05T08:42:37.679Z,100.00
2017-11-05T08:45:05.470Z,100.00
2017-11-05T08:47:33.085Z,100.00
2017-11-05T08:50:00.782Z,100.00
2017-11-05T08:52:28.452Z,100.00
2017-11-05T08:54:56.179Z,100.00
2017-11-05T08:57:23.778Z,100.00
2017-11-05T08:59:51.490Z,100.00
2017-11-05T09:02:19.187Z,100.00
2017-11-05T09:04:46.886Z,100.00
2017-11-05T09:07:14.544Z,100.00
2017-11-05T09:09:42.206Z,100.00
2017-11-05T09:12:09.931Z,100.00
2017-11-05T09:14:37.593Z,100.00
2017-11-05T09:17:05.300Z,100.00
2017-11-05T09:19:32.968Z,100.00
2017-11-05T09:22:00.664Z,100.00
2017-11-05T09:24:28.327Z,100.00
2017-11-05T09:26:56.019Z,100.00
2017-11-05T09:29:23.610Z,100.00
2017-11-05T09:31:51.308Z,100.00
2017-11-05T09:34:18.960Z,100.00
2017-11-05T09:36:46.701Z,100.00
2017-11-05T09:39:14.342Z,100.00
2017-11-05T09:41:42.024Z,100.00
2017-11-05T09:44:09.715Z,100.00
2017-11-05T09:46:37.371Z,100.00
2017-11-05T09:49:05.001Z,100.00
2017-11-05T09:51:32.659Z,100.00
2017-11-05T09:54:00.293Z,100.00
2017-11-05T09:56:27.963Z,100.00
2017-11-05T09:58:55.642Z,100.00
2017-11-05T10:01:23.310Z,100.00
2017-11-05T10:03:51.028Z,100.00
2017-11-05T10:06:18.800Z,100.00
2017-11-05T10:08:46.446Z,100.00
2017-11-05T10:11:14.146Z,100.00
2017-11-05T10:13:41.807Z,99.91
2017-11-05T10:16:09.509Z,99.73
2017-11-05T10:18:37.174Z,99.71
2017-11-05T10:21:04.869Z,99.33
2017-11-05T10:23:32.523Z,99.33
2017-11-05T10:26:00.202Z,99.53
2017-11-05T10:28:27.864Z,99.31
2017-11-05T10:30:55.574Z,98.65
2017-11-05T10:33:23.248Z,97.96
2017-11-05T10:35:53.926Z,97.68
2017-11-05T10:38:21.573Z,97.97
2017-11-05T10:40:49.275Z,98.27
2017-11-05T10:43:16.936Z,98.20
2017-11-05T10:45:44.593Z,98.32
2017-11-05T10:48:12.269Z,98.15
2017-11-05T10:50:39.908Z,98.28
2017-11-05T10:53:07.575Z,98.33
2017-11-05T10:55:35.224Z,98.38
2017-11-05T10:58:02.919Z,98.31
2017-11-05T11:00:30.562Z,98.12
2017-11-05T11:02:58.238Z,97.98
2017-11-05T11:05:25.838Z,98.04
2017-11-05T11:07:53.511Z,98.22
2017-11-05T11:10:21.146Z,97.38
2017-11-05T11:12:48.855Z,97.70
2017-11-05T11:15:16.496Z,97.50
2017-11-05T11:17:44.160Z,97.90
2017-11-05T11:20:11.876Z,97.84
2017-11-05T11:22:39.517Z,96.40
2017-11-05T11:25:07.211Z,96.28
2017-11-05T11:27:34.857Z,96.20
2017-11-05T11:30:02.568Z,96.43
2017-11-05T11:32:30.239Z,96.36
2017-11-05T11:34:57.950Z,96.52
2017-11-05T11:37:25.607Z,96.71
2017-11-05T11:39:53.290Z,96.20
2017-11-05T11:42:20.929Z,96.52
2017-11-05T11:44:48.629Z,95.90
2017-11-05T11:47:16.259Z,95.47
2017-11-05T11:49:43.923Z,95.79
2017-11-05T11:52:11.599Z,95.97
2017-11-05T11:54:39.256Z,95.39
2017-11-05T11:57:06.939Z,95.60
2017-11-05T11:59:34.583Z,95.64
2017-11-05T12:02:02.287Z,95.19
2017-11-05T12:04:29.968Z,95.52
2017-11-05T12:06:57.654Z,96.17
2017-11-05T12:09:25.300Z,96.59
2017-11-05T12:11:53.059Z,96.87
2017-11-05T12:14:20.724Z,96.74
2017-11-05T12:16:48.438Z,97.15
2017-11-05T12:19:16.084Z,97.55
2017-11-05T12:21:43.722Z,97.69
2017-11-05T12:24:11.417Z,97.80
2017-11-05T12:26:39.015Z,97.99
2017-11-05T12:29:06.703Z,98.21
2017-11-05T12:31:34.366Z,98.21
2017-11-05T12:34:02.072Z,98.13
2017-11-05T12:36:29.785Z,98.49
2017-11-05T12:38:57.463Z,98.69
2017-11-05T12:41:25.113Z,98.55
2017-11-05T12:43:52.819Z,98.43
2017-11-05T12:46:20.485Z,98.51
2017-11-05T12:48:48.197Z,98.56
2017-11-05T12:51:15.853Z,98.61
2017-11-05T12:53:43.518Z,98.61
2017-11-05T12:56:11.192Z,98.45
2017-11-05T12:58:38.840Z,98.43
2017-11-05T13:01:06.526Z,98.37
2017-11-05T13:03:34.178Z,98.55
2017-11-05T13:06:01.883Z,98.64
2017-11-05T13:08:29.539Z,98.74
2017-11-05T13:10:57.223Z,98.90
2017-11-05T13:13:24.892Z,98.86
2017-11-05T13:15:52.595Z,99.00
2017-11-05T13:18:20.247Z,99.11
2017-11-05T13:20:47.946Z,99.29
2017-11-05T13:23:15.619Z,99.45
2017-11-05T13:25:43.331Z,99.51
2017-11-05T13:28:10.998Z,99.53
2017-11-05T13:30:38.717Z,99.62
2017-11-05T13:33:06.363Z,99.73
2017-11-05T13:35:34.087Z,99.78
2017-11-05T13:38:01.767Z,99.80
2017-11-05T13:40:29.421Z,99.72
2017-11-05T13:42:57.101Z,99.63
2017-11-05T13:45:24.773Z,99.26
2017-11-05T13:47:52.466Z,98.99
2017-11-05T13:50:20.125Z,99.03
2017-11-05T13:52:47.793Z,99.02
2017-11-05T13:55:15.457Z,98.98
2017-11-05T13:57:43.162Z,98.94
2017-11-05T14:00:10.820Z,99.09
2017-11-05T14:02:38.524Z,99.21
2017-11-05T14:05:06.106Z,99.41
2017-11-05T14:07:33.817Z,99.62
2017-11-05T14:10:01.942Z,99.76
2017-11-05T14:12:29.588Z,99.91
2017-11-05T14:14:57.287Z,99.99
2017-11-05T14:17:24.959Z,100.00
2017-11-05T14:19:52.664Z,100.00
2017-11-05T14:22:20.319Z,100.00
2017-11-05T14:24:48.015Z,100.00
2017-11-05T14:27:15.657Z,100.00
2017-11-05T14:29:43.354Z,100.00
2017-11-05T14:32:11.015Z,100.00
2017-11-05T14:34:38.713Z,100.00
2017-11-05T14:37:06.401Z,100.00
2017-11-05T14:39:34.083Z,100.00
2017-11-05T14:42:01.682Z,100.00
2017-11-05T14:44:29.415Z,100.00
2017-11-05T14:46:57.112Z,100.00
2017-11-05T14:49:24.838Z,100.00
2017-11-05T14:51:52.532Z,100.00
2017-11-05T14:54:20.213Z,100.00
2017-11-05T14:56:47.934Z,100.00
2017-11-05T14:59:15.587Z,100.00
2017-11-05T15:01:43.283Z,100.00
2017-11-05T15:04:10.949Z,100.00
2017-11-05T15:06:38.793Z,100.00
2017-11-05T15:09:06.450Z,100.00
2017-11-05T15:11:34.151Z,100.00
2017-11-05T15:14:01.818Z,100.00
2017-11-05T15:16:29.509Z,100.00
2017-11-05T15:18:57.180Z,100.00
2017-11-05T15:21:24.873Z,100.00
2017-11-05T15:23:52.527Z,100.00
2017-11-05T15:26:20.228Z,100.00
2017-11-05T15:28:47.890Z,100.00
2017-11-05T15:31:15.573Z,100.00
2017-11-05T15:33:43.220Z,100.00
2017-11-05T15:36:10.975Z,100.00
2017-11-05T15:38:38.662Z,100.00
2017-11-05T15:41:06.380Z,100.00
2017-11-05T15:43:34.069Z,100.00
2017-11-05T15:46:01.719Z,100.00
2017-11-05T15:48:29.462Z,100.00
2017-11-05T15:50:57.173Z,100.00
2017-11-05T15:53:24.869Z,100.00
2017-11-05T15:55:52.630Z,100.00
2017-11-05T15:58:20.347Z,100.00
2017-11-05T16:00:48.050Z,100.00
2017-11-05T16:03:15.811Z,100.00
2017-11-05T16:05:43.494Z,100.00
2017-11-05T16:08:11.185Z,100.00
2017-11-05T16:10:38.829Z,100.00
2017-11-05T16:13:06.514Z,100.00
2017-11-05T16:15:34.171Z,100.00
2017-11-05T16:18:01.880Z,100.00
2017-11-05T16:20:29.528Z,100.00
2017-11-05T16:22:57.234Z,100.00
2017-11-05T16:25:24.943Z,100.00
2017-11-05T16:27:52.642Z,100.00
2017-11-05T16:30:20.318Z,100.00
2017-11-05T16:32:47.972Z,100.00
2017-11-05T16:35:15.698Z,100.00
2017-11-05T16:37:43.365Z,100.00
2017-11-05T16:40:11.059Z,100.00
2017-11-05T16:42:38.713Z,100.00
2017-11-05T16:45:06.393Z,100.00
2017-11-05T16:47:34.078Z,100.00
2017-11-05T16:50:01.758Z,100.00
2017-11-05T16:52:29.410Z,100.00
2017-11-05T16:54:57.087Z,100.00
2017-11-05T16:57:24.734Z,100.00
2017-11-05T16:59:52.420Z,100.00
2017-11-05T17:02:20.059Z,100.00
2017-11-05T17:04:47.714Z,100.00
2017-11-05T17:07:15.435Z,100.00
2017-11-05T17:09:43.080Z,100.00
2017-11-05T17:12:10.769Z,100.00
2017-11-05T17:14:38.502Z,100.00
2017-11-05T17:17:06.211Z,100.00
2017-11-05T17:19:33.853Z,100.00
2017-11-05T17:22:01.592Z,100.00
2017-11-05T17:24:29.248Z,100.00
2017-11-05T17:26:56.960Z,100.00
2017-11-05T17:29:24.654Z,100.00
2017-11-05T17:31:52.311Z,100.00
2017-11-05T17:34:20.004Z,100.00
2017-11-05T17:36:47.719Z,100.00
2017-11-05T17:39:15.426Z,100.00
2017-11-05T17:41:43.069Z,100.00
2017-11-05T17:44:10.767Z,100.00
2017-11-05T17:46:38.432Z,100.00
2017-11-05T17:49:06.116Z,100.00
2017-11-05T17:51:33.773Z,100.00
2017-11-05T17:54:01.481Z,100.00
2017-11-05T17:56:30.135Z,100.00
2017-11-05T17:58:57.846Z,100.00
2017-11-05T18:01:25.497Z,100.00
2017-11-05T18:03:53.191Z,100.00
2017-11-05T18:06:20.840Z,100.00
2017-11-05T18:08:48.535Z,100.00
2017-11-05T18:11:16.191Z,100.00
2017-11-05T18:13:43.842Z,100.00
2017-11-05T18:16:11.522Z,100.00
2017-11-05T18:18:39.176Z,100.00
2017-11-05T18:21:06.864Z,99.82
2017-11-05T18:23:34.523Z,99.54
2017-11-05T18:26:02.197Z,99.36
2017-11-05T18:28:29.845Z,99.45
2017-11-05T18:30:57.527Z,99.48
2017-11-05T18:33:25.187Z,99.53
2017-11-05T18:35:52.921Z,99.58
2017-11-05T18:38:20.575Z,99.66
2017-11-05T18:40:48.269Z,99.70
2017-11-05T18:43:15.915Z,99.70
2017-11-05T18:45:43.650Z,99.72
2017-11-05T18:48:11.301Z,99.73
2017-11-05T18:50:38.988Z,99.75
2017-11-05T18:53:06.673Z,99.77
2017-11-05T18:55:34.364Z,99.78
2017-11-05T18:58:02.049Z,99.83
2017-11-05T19:00:29.725Z,99.88
2017-11-05T19:02:57.423Z,99.92
2017-11-05T19:05:25.101Z,100.00
2017-11-05T19:07:52.817Z,100.00
2017-11-05T19:10:20.477Z,100.00
2017-11-05T19:12:48.183Z,100.00
2017-11-05T19:15:15.861Z,100.00
2017-11-05T19:17:43.585Z,100.00
2017-11-05T19:20:11.255Z,100.00
2017-11-05T19:22:38.927Z,100.00
2017-11-05T19:25:06.632Z,100.00
2017-11-05T19:27:34.300Z,100.00
2017-11-05T19:30:01.988Z,100.00
2017-11-05T19:32:29.639Z,100.00
2017-11-05T19:34:57.336Z,100.00
2017-11-05T19:37:25.045Z,100.00
2017-11-05T19:39:52.735Z,100.00
2017-11-05T19:42:20.417Z,100.00
2017-11-05T19:44:48.101Z,100.00
2017-11-05T19:47:15.767Z,100.00
2017-11-05T19:49:44.365Z,100.00
2017-11-05T19:52:12.073Z,100.00
2017-11-05T19:54:39.802Z,100.00
2017-11-05T19:57:08.534Z,100.00
2017-11-05T19:59:36.214Z,100.00
2017-11-05T20:02:03.857Z,100.00
2017-11-05T20:04:31.555Z,100.00
2017-11-05T20:06:59.197Z,100.00
2017-11-05T20:09:26.906Z,100.00
2017-11-05T20:11:54.571Z,100.00
2017-11-05T20:14:22.233Z,100.00
2017-11-05T20:16:49.933Z,100.00
2017-11-05T20:19:17.585Z,100.00
2017-11-05T20:21:45.196Z,100.00
2017-11-05T20:24:12.862Z,100.00
2017-11-05T20:26:40.568Z,100.00
2017-11-05T20:29:08.206Z,100.00
2017-11-05T20:31:35.880Z,100.00
2017-11-05T20:34:03.542Z,100.00
2017-11-05T20:36:31.271Z,100.00
2017-11-05T20:38:58.906Z,100.00
2017-11-05T20:41:26.605Z,100.00
2017-11-05T20:43:54.263Z,100.00
2017-11-05T20:46:21.935Z,100.00
2017-11-05T20:48:49.618Z,100.00
2017-11-05T20:51:17.253Z,100.00
2017-11-05T20:53:44.953Z,100.00
2017-11-05T20:56:12.614Z,100.00
2017-11-05T20:58:40.332Z,100.00
2017-11-05T21:01:07.991Z,100.00
2017-11-05T21:03:35.683Z,100.00
2017-11-05T21:06:03.330Z,100.00
2017-11-05T21:08:31.055Z,100.00
2017-11-05T21:10:58.696Z,100.00
2017-11-05T21:13:26.395Z,100.00
2017-11-05T21:15:54.045Z,100.00
2017-11-05T21:18:21.745Z,100.00
2017-11-05T21:20:49.406Z,100.00
2017-11-05T21:23:17.124Z,100.00
2017-11-05T21:25:44.785Z,100.00
2017-11-05T21:28:12.496Z,100.00
2017-11-05T21:30:40.170Z,100.00
2017-11-05T21:33:07.811Z,100.00
2017-11-05T21:35:35.546Z,100.00
2017-11-05T21:38:03.200Z,100.00
2017-11-05T21:40:30.919Z,100.00
2017-11-05T21:42:58.574Z,100.00
2017-11-05T21:45:26.272Z,100.00
2017-11-05T21:47:53.936Z,100.00
2017-11-05T21:50:21.625Z,100.00
2017-11-05T21:52:49.301Z,100.00
2017-11-05T21:55:17.007Z,100.00
2017-11-05T21:57:45.913Z,100.00
2017-11-05T22:00:13.637Z,100.00
2017-11-05T22:02:41.272Z,100.00
2017-11-05T22:05:08.970Z,100.00
2017-11-05T22:07:36.608Z,100.00
2017-11-05T22:10:04.327Z,100.00
2017-11-05T22:12:31.975Z,100.00
2017-11-05T22:14:59.660Z,100.00
2017-11-05T22:17:27.318Z,100.00
2017-11-05T22:19:55.007Z,100.00
2017-11-05T22:22:22.656Z,100.00
2017-11-05T22:24:50.371Z,100.00
2017-11-05T22:27:18.018Z,100.00
2017-11-05T22:29:45.680Z,100.00
2017-11-05T22:32:13.381Z,100.00
2017-11-05T22:34:41.039Z,100.00
2017-11-05T22:37:08.791Z,100.00
2017-11-05T22:39:36.447Z,100.00
2017-11-05T22:42:04.147Z,100.00
2017-11-05T22:44:31.798Z,100.00
2017-11-05T22:46:59.486Z,100.00
2017-11-05T22:49:27.140Z,100.00
2017-11-05T22:51:54.837Z,100.00
2017-11-05T22:54:22.483Z,100.00
2017-11-05T22:56:50.180Z,100.00
2017-11-05T22:59:17.838Z,100.00
2017-11-05T23:01:45.536Z,100.00
2017-11-05T23:04:13.206Z,100.00
2017-11-05T23:06:40.886Z,100.00
2017-11-05T23:09:08.531Z,100.00
2017-11-05T23:11:36.202Z,100.00
2017-11-05T23:14:03.839Z,100.00
2017-11-05T23:16:31.524Z,100.00
2017-11-05T23:18:59.176Z,100.00
2017-11-05T23:21:26.881Z,100.00
2017-11-05T23:23:54.521Z,100.00
2017-11-05T23:26:22.172Z,100.00
2017-11-05T23:28:49.858Z,100.00
2017-11-05T23:31:17.498Z,100.00
2017-11-05T23:33:45.204Z,100.00
2017-11-05T23:36:12.900Z,100.00
2017-11-05T23:38:40.604Z,100.00
2017-11-05T23:41:08.268Z,100.00
2017-11-05T23:43:35.963Z,100.00
2017-11-05T23:46:03.611Z,100.00
2017-11-05T23:48:31.293Z,100.00
2017-11-05T23:50:58.937Z,100.00
2017-11-05T23:53:26.619Z,100.00
2017-11-05T23:55:54.271Z,100.00
2017-11-05T23:58:23.139Z,100.00
